sensor_id;sensor_type;location;lat;lon;timestamp;P1;durP1;ratioP1;P2;durP2;ratioP2
65063;SDS011;51654;51.452;6.644;2022-07-22T00:00:58;9.30;;;2.20;;
65063;SDS011;51654;51.452;6.644;2022-07-22T00:03:25;3.23;;;2.47;;
65063;SDS011;51654;51.452;6.644;2022-07-22T02:06:14;2.90;;;1.45;;
65063;SDS011;51654;51.452;6.644;2022-07-22T04:23:02;1.60;;;1.35;;
65063;SDS011;51654;51.452;6.644;2022-07-22T04:25:29;2.72;;;1.17;;
65063;SDS011;51654;51.452;6.644;2022-07-22T04:27:56;3.28;;;1.85;;
65063;SDS011;51654;51.452;6.644;2022-07-22T04:30:24;4.47;;;2.60;;
65063;SDS011;51654;51.452;6.644;2022-07-22T04:32:51;1.90;;;1.30;;
65063;SDS011;51654;51.452;6.644;2022-07-22T04:35:19;5.38;;;1.35;;
65063;SDS011;51654;51.452;6.644;2022-07-22T04:38:02;3.33;;;1.25;;
65063;SDS011;51654;51.452;6.644;2022-07-22T04:40:29;1.13;;;1.10;;
65063;SDS011;51654;51.452;6.644;2022-07-22T04:42:56;4.65;;;1.33;;
65063;SDS011;51654;51.452;6.644;2022-07-22T04:45:23;0.95;;;0.60;;
65063;SDS011;51654;51.452;6.644;2022-07-22T04:47:50;0.65;;;0.65;;
65063;SDS011;51654;51.452;6.644;2022-07-22T04:50:17;4.70;;;1.08;;
65063;SDS011;51654;51.452;6.644;2022-07-22T04:52:44;1.98;;;1.25;;
65063;SDS011;51654;51.452;6.644;2022-07-22T04:55:15;2.90;;;0.52;;
65063;SDS011;51654;51.452;6.644;2022-07-22T04:57:42;1.70;;;1.02;;
65063;SDS011;51654;51.452;6.644;2022-07-22T05:00:10;0.85;;;0.68;;
65063;SDS011;51654;51.452;6.644;2022-07-22T05:02:46;3.00;;;0.70;;
65063;SDS011;51654;51.452;6.644;2022-07-22T05:05:14;3.15;;;1.48;;
65063;SDS011;51654;51.452;6.644;2022-07-22T05:07:41;4.25;;;1.52;;
65063;SDS011;51654;51.452;6.644;2022-07-22T05:10:08;4.53;;;1.70;;
65063;SDS011;51654;51.452;6.644;2022-07-22T05:12:35;1.85;;;1.75;;
65063;SDS011;51654;51.452;6.644;2022-07-22T05:15:02;1.13;;;1.13;;
65063;SDS011;51654;51.452;6.644;2022-07-22T05:17:31;5.78;;;1.60;;
65063;SDS011;51654;51.452;6.644;2022-07-22T05:20:11;1.60;;;1.30;;
65063;SDS011;51654;51.452;6.644;2022-07-22T05:22:38;1.60;;;1.60;;
65063;SDS011;51654;51.452;6.644;2022-07-22T05:25:11;1.30;;;1.20;;
65063;SDS011;51654;51.452;6.644;2022-07-22T05:27:46;2.25;;;2.08;;
65063;SDS011;51654;51.452;6.644;2022-07-22T05:30:30;2.13;;;1.90;;
65063;SDS011;51654;51.452;6.644;2022-07-22T05:32:57;1.30;;;1.30;;
65063;SDS011;51654;51.452;6.644;2022-07-22T05:35:44;1.27;;;1.17;;
65063;SDS011;51654;51.452;6.644;2022-07-22T05:38:11;4.13;;;1.98;;
65063;SDS011;51654;51.452;6.644;2022-07-22T05:40:38;10.68;;;2.42;;
65063;SDS011;51654;51.452;6.644;2022-07-22T05:43:06;1.88;;;1.50;;
65063;SDS011;51654;51.452;6.644;2022-07-22T05:45:33;4.38;;;2.75;;
65063;SDS011;51654;51.452;6.644;2022-07-22T05:48:00;2.95;;;1.55;;
65063;SDS011;51654;51.452;6.644;2022-07-22T05:50:28;1.30;;;1.20;;
65063;SDS011;51654;51.452;6.644;2022-07-22T05:52:55;5.72;;;2.40;;
65063;SDS011;51654;51.452;6.644;2022-07-22T05:55:22;4.32;;;1.85;;
65063;SDS011;51654;51.452;6.644;2022-07-22T05:57:49;2.00;;;1.85;;
65063;SDS011;51654;51.452;6.644;2022-07-22T06:00:16;6.57;;;2.10;;
65063;SDS011;51654;51.452;6.644;2022-07-22T06:02:43;7.80;;;1.60;;
65063;SDS011;51654;51.452;6.644;2022-07-22T06:05:16;5.30;;;1.65;;
65063;SDS011;51654;51.452;6.644;2022-07-22T06:08:02;1.73;;;1.63;;
65063;SDS011;51654;51.452;6.644;2022-07-22T06:10:39;3.38;;;2.35;;
65063;SDS011;51654;51.452;6.644;2022-07-22T06:13:05;4.95;;;1.63;;
65063;SDS011;51654;51.452;6.644;2022-07-22T06:15:33;4.90;;;2.95;;
65063;SDS011;51654;51.452;6.644;2022-07-22T06:18:01;5.07;;;2.25;;
65063;SDS011;51654;51.452;6.644;2022-07-22T06:20:28;2.42;;;1.92;;
65063;SDS011;51654;51.452;6.644;2022-07-22T06:22:55;4.35;;;2.10;;
65063;SDS011;51654;51.452;6.644;2022-07-22T06:25:23;4.30;;;2.78;;
65063;SDS011;51654;51.452;6.644;2022-07-22T06:28:24;8.00;;;2.22;;
65063;SDS011;51654;51.452;6.644;2022-07-22T06:30:52;3.05;;;1.45;;
65063;SDS011;51654;51.452;6.644;2022-07-22T06:33:21;5.82;;;3.30;;
65063;SDS011;51654;51.452;6.644;2022-07-22T06:35:48;3.30;;;2.67;;
65063;SDS011;51654;51.452;6.644;2022-07-22T06:38:16;5.28;;;3.45;;
65063;SDS011;51654;51.452;6.644;2022-07-22T06:41:22;9.10;;;3.03;;
65063;SDS011;51654;51.452;6.644;2022-07-22T06:44:01;3.08;;;2.83;;
65063;SDS011;51654;51.452;6.644;2022-07-22T06:46:50;3.90;;;3.25;;
65063;SDS011;51654;51.452;6.644;2022-07-22T06:49:19;2.88;;;2.45;;
65063;SDS011;51654;51.452;6.644;2022-07-22T06:51:50;9.50;;;3.28;;
65063;SDS011;51654;51.452;6.644;2022-07-22T06:54:17;7.45;;;3.38;;
65063;SDS011;51654;51.452;6.644;2022-07-22T06:56:44;12.00;;;3.70;;
65063;SDS011;51654;51.452;6.644;2022-07-22T06:59:17;23.45;;;4.57;;
65063;SDS011;51654;51.452;6.644;2022-07-22T07:01:44;22.67;;;7.18;;
65063;SDS011;51654;51.452;6.644;2022-07-22T07:04:13;30.17;;;6.80;;
65063;SDS011;51654;51.452;6.644;2022-07-22T07:06:41;25.85;;;7.45;;
65063;SDS011;51654;51.452;6.644;2022-07-22T07:09:15;33.35;;;9.55;;
65063;SDS011;51654;51.452;6.644;2022-07-22T07:11:51;39.95;;;10.82;;
65063;SDS011;51654;51.452;6.644;2022-07-22T07:14:38;29.48;;;8.27;;
65063;SDS011;51654;51.452;6.644;2022-07-22T07:17:13;29.83;;;8.60;;
65063;SDS011;51654;51.452;6.644;2022-07-22T07:19:42;26.50;;;7.65;;
65063;SDS011;51654;51.452;6.644;2022-07-22T07:22:09;24.33;;;7.28;;
65063;SDS011;51654;51.452;6.644;2022-07-22T07:24:37;18.02;;;6.20;;
65063;SDS011;51654;51.452;6.644;2022-07-22T07:27:05;21.15;;;6.07;;
65063;SDS011;51654;51.452;6.644;2022-07-22T07:29:33;15.02;;;4.57;;
65063;SDS011;51654;51.452;6.644;2022-07-22T08:30:10;9.60;;;4.90;;
65063;SDS011;51654;51.452;6.644;2022-07-22T09:05:13;3.05;;;2.78;;
65063;SDS011;51654;51.452;6.644;2022-07-22T09:08:03;5.20;;;2.88;;
65063;SDS011;51654;51.452;6.644;2022-07-22T09:10:42;5.05;;;3.00;;
65063;SDS011;51654;51.452;6.644;2022-07-22T09:13:47;6.55;;;2.90;;
65063;SDS011;51654;51.452;6.644;2022-07-22T09:16:41;4.25;;;2.47;;
65063;SDS011;51654;51.452;6.644;2022-07-22T09:19:33;2.22;;;2.03;;
65063;SDS011;51654;51.452;6.644;2022-07-22T09:25:25;3.55;;;1.75;;
65063;SDS011;51654;51.452;6.644;2022-07-22T09:28:20;8.60;;;3.08;;
65063;SDS011;51654;51.452;6.644;2022-07-22T09:31:22;8.10;;;1.98;;
65063;SDS011;51654;51.452;6.644;2022-07-22T09:34:11;4.07;;;2.40;;
65063;SDS011;51654;51.452;6.644;2022-07-22T09:36:59;2.90;;;2.05;;
65063;SDS011;51654;51.452;6.644;2022-07-22T09:39:29;2.30;;;2.10;;
65063;SDS011;51654;51.452;6.644;2022-07-22T09:42:00;2.40;;;2.20;;
65063;SDS011;51654;51.452;6.644;2022-07-22T09:44:33;5.43;;;1.90;;
65063;SDS011;51654;51.452;6.644;2022-07-22T09:47:27;7.43;;;3.13;;
65063;SDS011;51654;51.452;6.644;2022-07-22T09:50:23;3.13;;;2.15;;
65063;SDS011;51654;51.452;6.644;2022-07-22T09:53:11;2.95;;;2.55;;
65063;SDS011;51654;51.452;6.644;2022-07-22T09:55:53;3.00;;;2.78;;
65063;SDS011;51654;51.452;6.644;2022-07-22T09:58:20;2.88;;;2.22;;
65063;SDS011;51654;51.452;6.644;2022-07-22T10:00:48;225.77;;;94.03;;
65063;SDS011;51654;51.452;6.644;2022-07-22T10:03:27;106.47;;;45.55;;
65063;SDS011;51654;51.452;6.644;2022-07-22T10:06:00;33.72;;;16.90;;
65063;SDS011;51654;51.452;6.644;2022-07-22T10:08:30;10.47;;;6.50;;
65063;SDS011;51654;51.452;6.644;2022-07-22T10:18:22;23.92;;;10.27;;
65063;SDS011;51654;51.452;6.644;2022-07-22T10:21:27;20.27;;;8.18;;
65063;SDS011;51654;51.452;6.644;2022-07-22T10:26:59;14.30;;;5.23;;
65063;SDS011;51654;51.452;6.644;2022-07-22T10:29:32;7.90;;;4.53;;
65063;SDS011;51654;51.452;6.644;2022-07-22T10:34:45;15.90;;;6.93;;
65063;SDS011;51654;51.452;6.644;2022-07-22T10:45:27;12.45;;;5.03;;
65063;SDS011;51654;51.452;6.644;2022-07-22T10:47:59;2.05;;;1.85;;
65063;SDS011;51654;51.452;6.644;2022-07-22T10:53:05;3.70;;;2.90;;
65063;SDS011;51654;51.452;6.644;2022-07-22T11:56:13;2.22;;;2.05;;
65063;SDS011;51654;51.452;6.644;2022-07-22T12:31:43;1.60;;;1.50;;
65063;SDS011;51654;51.452;6.644;2022-07-22T12:34:32;1.20;;;1.20;;
65063;SDS011;51654;51.452;6.644;2022-07-22T13:00:31;2.50;;;2.30;;
65063;SDS011;51654;51.452;6.644;2022-07-22T13:03:00;2.60;;;1.95;;
65063;SDS011;51654;51.452;6.644;2022-07-22T13:05:27;2.22;;;2.13;;
65063;SDS011;51654;51.452;6.644;2022-07-22T13:07:55;5.40;;;1.48;;
65063;SDS011;51654;51.452;6.644;2022-07-22T13:10:22;2.28;;;2.10;;
65063;SDS011;51654;51.452;6.644;2022-07-22T13:12:51;4.78;;;2.20;;
65063;SDS011;51654;51.452;6.644;2022-07-22T13:15:18;1.33;;;1.27;;
65063;SDS011;51654;51.452;6.644;2022-07-22T13:17:46;2.40;;;1.38;;
65063;SDS011;51654;51.452;6.644;2022-07-22T13:20:13;4.47;;;2.05;;
65063;SDS011;51654;51.452;6.644;2022-07-22T13:22:49;3.70;;;3.40;;
65063;SDS011;51654;51.452;6.644;2022-07-22T13:25:17;4.57;;;2.95;;
65063;SDS011;51654;51.452;6.644;2022-07-22T13:27:44;1.33;;;1.33;;
65063;SDS011;51654;51.452;6.644;2022-07-22T13:30:11;1.35;;;1.27;;
65063;SDS011;51654;51.452;6.644;2022-07-22T13:32:39;1.95;;;1.40;;
65063;SDS011;51654;51.452;6.644;2022-07-22T13:35:14;2.58;;;1.05;;
65063;SDS011;51654;51.452;6.644;2022-07-22T13:37:42;1.92;;;1.48;;
65063;SDS011;51654;51.452;6.644;2022-07-22T13:40:13;1.95;;;1.30;;
65063;SDS011;51654;51.452;6.644;2022-07-22T13:42:40;5.50;;;1.95;;
65063;SDS011;51654;51.452;6.644;2022-07-22T13:45:08;4.55;;;1.50;;
65063;SDS011;51654;51.452;6.644;2022-07-22T13:47:39;1.15;;;1.15;;
65063;SDS011;51654;51.452;6.644;2022-07-22T13:50:07;1.65;;;1.40;;
65063;SDS011;51654;51.452;6.644;2022-07-22T13:52:34;5.53;;;4.15;;
65063;SDS011;51654;51.452;6.644;2022-07-22T13:55:01;3.75;;;3.50;;
65063;SDS011;51654;51.452;6.644;2022-07-22T13:57:28;2.58;;;1.92;;
65063;SDS011;51654;51.452;6.644;2022-07-22T13:59:55;1.42;;;1.33;;
65063;SDS011;51654;51.452;6.644;2022-07-22T14:02:22;1.50;;;1.50;;
65063;SDS011;51654;51.452;6.644;2022-07-22T14:26:53;115.90;;;49.13;;
65063;SDS011;51654;51.452;6.644;2022-07-22T14:29:20;91.95;;;39.35;;
65063;SDS011;51654;51.452;6.644;2022-07-22T14:31:48;65.15;;;28.65;;
65063;SDS011;51654;51.452;6.644;2022-07-22T14:34:15;61.92;;;30.00;;
65063;SDS011;51654;51.452;6.644;2022-07-22T14:36:45;43.30;;;20.48;;
65063;SDS011;51654;51.452;6.644;2022-07-22T14:39:13;44.90;;;17.58;;
65063;SDS011;51654;51.452;6.644;2022-07-22T14:41:40;26.30;;;14.88;;
65063;SDS011;51654;51.452;6.644;2022-07-22T14:44:07;26.35;;;13.90;;
65063;SDS011;51654;51.452;6.644;2022-07-22T14:46:34;23.25;;;10.57;;
65063;SDS011;51654;51.452;6.644;2022-07-22T14:49:01;15.88;;;8.68;;
65063;SDS011;51654;51.452;6.644;2022-07-22T14:51:28;13.77;;;6.30;;
65063;SDS011;51654;51.452;6.644;2022-07-22T14:53:55;9.88;;;5.97;;
65063;SDS011;51654;51.452;6.644;2022-07-22T14:56:23;14.13;;;5.75;;
65063;SDS011;51654;51.452;6.644;2022-07-22T14:58:51;10.68;;;4.65;;
65063;SDS011;51654;51.452;6.644;2022-07-22T15:01:18;5.20;;;4.03;;
65063;SDS011;51654;51.452;6.644;2022-07-22T15:03:52;5.40;;;3.53;;
65063;SDS011;51654;51.452;6.644;2022-07-22T15:06:20;3.90;;;3.50;;
65063;SDS011;51654;51.452;6.644;2022-07-22T17:24:23;2.35;;;2.28;;
65063;SDS011;51654;51.452;6.644;2022-07-22T18:33:23;3.10;;;2.80;;
65063;SDS011;51654;51.452;6.644;2022-07-22T18:48:16;3.42;;;2.58;;
65063;SDS011;51654;51.452;6.644;2022-07-22T18:50:44;27.42;;;3.78;;
65063;SDS011;51654;51.452;6.644;2022-07-22T19:07:53;39.70;;;5.22;;
65063;SDS011;51654;51.452;6.644;2022-07-22T19:10:23;9.07;;;2.20;;
65063;SDS011;51654;51.452;6.644;2022-07-22T19:12:49;2.42;;;2.03;;
65063;SDS011;51654;51.452;6.644;2022-07-22T19:15:16;2.92;;;1.63;;
65063;SDS011;51654;51.452;6.644;2022-07-22T19:17:43;2.38;;;2.25;;
65063;SDS011;51654;51.452;6.644;2022-07-22T19:20:10;6.40;;;3.08;;
65063;SDS011;51654;51.452;6.644;2022-07-22T19:22:38;6.97;;;2.65;;
65063;SDS011;51654;51.452;6.644;2022-07-22T19:25:08;8.07;;;1.73;;
65063;SDS011;51654;51.452;6.644;2022-07-22T19:27:36;2.95;;;2.63;;
65063;SDS011;51654;51.452;6.644;2022-07-22T19:30:03;2.08;;;1.98;;
65063;SDS011;51654;51.452;6.644;2022-07-22T19:32:30;4.47;;;2.85;;
65063;SDS011;51654;51.452;6.644;2022-07-22T19:34:58;2.88;;;2.63;;
65063;SDS011;51654;51.452;6.644;2022-07-22T19:37:25;9.23;;;2.50;;
65063;SDS011;51654;51.452;6.644;2022-07-22T19:39:53;6.30;;;2.03;;
65063;SDS011;51654;51.452;6.644;2022-07-22T19:42:21;19.17;;;5.25;;
65063;SDS011;51654;51.452;6.644;2022-07-22T19:44:49;28.55;;;3.67;;
65063;SDS011;51654;51.452;6.644;2022-07-22T19:47:16;9.10;;;2.13;;
65063;SDS011;51654;51.452;6.644;2022-07-22T19:49:48;3.80;;;1.55;;
65063;SDS011;51654;51.452;6.644;2022-07-22T19:52:15;6.40;;;2.55;;
65063;SDS011;51654;51.452;6.644;2022-07-22T19:54:42;12.38;;;4.18;;
65063;SDS011;51654;51.452;6.644;2022-07-22T19:57:09;33.70;;;4.75;;
65063;SDS011;51654;51.452;6.644;2022-07-22T19:59:36;53.83;;;8.60;;
65063;SDS011;51654;51.452;6.644;2022-07-22T20:02:03;15.10;;;2.30;;
65063;SDS011;51654;51.452;6.644;2022-07-22T20:04:30;1.50;;;1.40;;
65063;SDS011;51654;51.452;6.644;2022-07-22T20:06:58;11.13;;;3.22;;
65063;SDS011;51654;51.452;6.644;2022-07-22T20:09:25;5.43;;;1.88;;
65063;SDS011;51654;51.452;6.644;2022-07-22T20:11:51;2.83;;;1.17;;
65063;SDS011;51654;51.452;6.644;2022-07-22T20:14:18;37.90;;;5.45;;
65063;SDS011;51654;51.452;6.644;2022-07-22T20:16:45;10.85;;;1.85;;
65063;SDS011;51654;51.452;6.644;2022-07-22T20:19:12;11.75;;;2.63;;
65063;SDS011;51654;51.452;6.644;2022-07-22T20:21:39;16.77;;;4.97;;
65063;SDS011;51654;51.452;6.644;2022-07-22T20:24:06;3.42;;;2.90;;
65063;SDS011;51654;51.452;6.644;2022-07-22T20:26:33;6.40;;;3.15;;
65063;SDS011;51654;51.452;6.644;2022-07-22T20:29:00;19.10;;;6.78;;
65063;SDS011;51654;51.452;6.644;2022-07-22T21:10:39;345.83;;;59.13;;
65063;SDS011;51654;51.452;6.644;2022-07-22T21:15:33;195.10;;;33.50;;
65063;SDS011;51654;51.452;6.644;2022-07-22T21:18:02;212.13;;;49.40;;
65063;SDS011;51654;51.452;6.644;2022-07-22T21:20:30;433.80;;;160.70;;
65063;SDS011;51654;51.452;6.644;2022-07-22T21:22:58;339.33;;;127.63;;
65063;SDS011;51654;51.452;6.644;2022-07-22T21:25:25;266.05;;;100.43;;
65063;SDS011;51654;51.452;6.644;2022-07-22T21:27:52;205.77;;;80.55;;
65063;SDS011;51654;51.452;6.644;2022-07-22T21:30:19;151.45;;;58.20;;
65063;SDS011;51654;51.452;6.644;2022-07-22T21:32:47;153.90;;;51.92;;
65063;SDS011;51654;51.452;6.644;2022-07-22T21:35:14;115.97;;;40.90;;
65063;SDS011;51654;51.452;6.644;2022-07-22T21:37:41;84.55;;;28.75;;
65063;SDS011;51654;51.452;6.644;2022-07-22T21:40:08;65.90;;;22.90;;
65063;SDS011;51654;51.452;6.644;2022-07-22T21:42:38;43.20;;;14.00;;
65063;SDS011;51654;51.452;6.644;2022-07-22T21:45:05;24.67;;;11.63;;
65063;SDS011;51654;51.452;6.644;2022-07-22T21:47:35;21.40;;;8.70;;
65063;SDS011;51654;51.452;6.644;2022-07-22T21:50:04;19.20;;;7.30;;
65063;SDS011;51654;51.452;6.644;2022-07-22T23:30:47;29.45;;;13.50;;
65063;SDS011;51654;51.452;6.644;2022-07-22T23:33:14;27.30;;;11.05;;
65063;SDS011;51654;51.452;6.644;2022-07-22T23:52:52;182.73;;;71.72;;
65063;SDS011;51654;51.452;6.644;2022-07-22T23:55:19;147.52;;;57.88;;
